Stations météo

réclame
Mon MeteoGroup
Hoek van Holland, Pays-Bas (6330): Température de l'air & dewpoint: 13.10.2018 11:00:00 - 19.10.2018 11:00:00 (CEST)Hoek van Holland, Pays-Bas (6330): Température de l'air 5cm: 13.10.2018 11:00:00 - 19.10.2018 11:00:00 (CEST)Hoek van Holland, Pays-Bas (6330): Vitesse du vent & gusts: 13.10.2018 11:00:00 - 19.10.2018 11:00:00 (CEST)Hoek van Holland, Pays-Bas (6330): Direction du vent: 13.10.2018 11:00:00 - 19.10.2018 11:00:00 (CEST)Hoek van Holland, Pays-Bas (6330): reduced air pressure: 13.10.2018 11:00:00 - 19.10.2018 11:00:00 (CEST)Hoek van Holland, Pays-Bas (6330): Quantités de précipitations: 13.10.2018 11:00:00 - 19.10.2018 11:00:00 (CEST)
Date & Time tt [°C] td [°C] tt 5cm [°C] ff [km/h] ff [knt] fx [km/h] fx [knt] dd ppp [hPa] rr [mm]
19.10.2018 11:00:00 12,3 7,8 12,4 15 8 - - E 1025,9 -
19.10.2018 10:00:00 10,2 7,3 9,8 18 10 22 12 ENE 1026,0 0,0
19.10.2018 09:00:00 9,0 6,7 7,7 18 10 22 12 ENE 1025,9 0,0
19.10.2018 08:00:00 7,9 6,0 6,5 14 8 22 12 ENE 1025,7 0,0
19.10.2018 07:00:00 8,4 6,0 7,5 18 10 22 12 ENE 1025,6 0,0
19.10.2018 06:00:00 8,4 6,5 7,7 18 10 22 12 ENE 1025,6 0,0
19.10.2018 05:00:00 8,4 6,7 7,5 22 12 25 14 ENE 1025,7 0,0
19.10.2018 04:00:00 9,0 6,6 8,2 14 8 22 12 E 1025,8 0,0
19.10.2018 03:00:00 9,6 6,8 8,8 18 10 25 14 ENE 1025,8 0,0
19.10.2018 02:00:00 10,2 7,6 9,6 22 12 29 16 E 1025,9 0,0
19.10.2018 01:00:00 10,4 8,1 9,7 18 10 22 12 E 1026,0 0,0
19.10.2018 00:00:00 10,9 8,3 10,1 18 10 22 12 E 1026,0 0,0
18.10.2018 23:00:00 11,6 8,8 10,7 18 10 22 12 ENE 1026,1 0,0
18.10.2018 22:00:00 11,7 8,8 11,0 25 14 29 16 ENE 1026,1 0,0
18.10.2018 21:00:00 11,8 7,9 10,7 22 12 29 16 NE 1026,0 0,0
18.10.2018 20:00:00 12,1 7,7 11,1 22 12 25 14 NE 1025,8 0,0
18.10.2018 19:00:00 13,2 7,7 12,7 22 12 29 16 NE 1025,5 0,0
18.10.2018 18:00:00 14,1 8,1 14,1 22 12 29 16 NNE 1025,1 0,0
18.10.2018 17:00:00 15,3 8,5 16,2 25 14 36 19 NNE 1025,3 0,0
18.10.2018 16:00:00 15,4 8,8 16,2 29 16 32 18 NNE 1025,4 0,0
18.10.2018 15:00:00 15,4 8,6 16,1 32 18 40 21 NNE 1025,6 0,0
18.10.2018 14:00:00 16,0 9,5 17,5 29 16 36 19 NNE 1025,5 0,0
18.10.2018 13:00:00 15,8 9,5 16,2 32 18 36 19 NNE 1025,8 0,0
18.10.2018 12:00:00 15,9 10,5 15,7 32 18 36 19 NNE 1025,9 0,0
18.10.2018 11:00:00 15,8 10,5 16,7 29 16 36 19 NE 1025,6 0,0
18.10.2018 10:00:00 14,6 11,4 13,6 22 12 29 16 ENE 1025,2 0,0
18.10.2018 09:00:00 13,4 11,3 13,1 22 12 29 16 ENE 1024,7 0,0
18.10.2018 08:00:00 13,4 11,3 13,1 18 10 36 19 ENE 1024,2 0,0
18.10.2018 07:00:00 13,9 11,2 13,4 32 18 40 21 NNE 1023,7 0,0
18.10.2018 06:00:00 13,3 12,4 13,0 29 16 36 19 NNE 1023,6 0,0
18.10.2018 05:00:00 13,1 12,6 13,1 32 18 40 21 NNE 1023,3 0,2
18.10.2018 04:00:00 14,4 13,5 14,2 14 8 22 12 N 1023,1 0,0
18.10.2018 03:00:00 14,0 13,2 14,0 11 6 29 16 N 1023,1 0,0
18.10.2018 02:00:00 14,6 12,5 14,3 14 8 18 10 NNE 1022,9 0,0
18.10.2018 01:00:00 14,4 12,1 13,5 14 8 18 10 N 1022,8 0,0
18.10.2018 00:00:00 13,8 11,2 13,2 18 10 25 14 NNE 1022,4 0,0
17.10.2018 23:00:00 14,0 11,3 13,1 18 10 22 12 N 1022,1 0,0
17.10.2018 22:00:00 14,0 11,5 13,1 18 10 22 12 N 1021,9 0,0
17.10.2018 21:00:00 14,0 11,1 13,2 14 8 18 10 NNW 1021,3 0,0
17.10.2018 20:00:00 14,0 11,0 13,3 14 8 18 10 NW 1020,9 0,0
17.10.2018 19:00:00 14,1 10,9 13,4 14 8 18 10 WNW 1020,4 0,0
17.10.2018 18:00:00 15,7 10,4 15,5 18 10 22 12 W 1020,1 0,0
17.10.2018 17:00:00 16,8 11,7 17,4 18 10 25 14 W 1020,0 0,0
17.10.2018 16:00:00 17,2 12,4 18,3 14 8 18 10 W 1019,8 0,0
17.10.2018 15:00:00 17,3 12,8 17,8 14 8 22 12 W 1019,6 0,0
17.10.2018 14:00:00 17,8 13,5 19,2 14 8 18 10 W 1019,4 0,0
17.10.2018 13:00:00 17,2 13,8 18,2 18 10 18 10 W 1019,5 0,0
17.10.2018 12:00:00 17,6 14,2 18,7 14 8 18 10 W 1019,5 0,0
17.10.2018 11:00:00 17,4 15,5 17,1 7 4 11 6 WSW 1019,3 0,0
17.10.2018 10:00:00 16,1 14,7 15,8 11 6 14 8 S 1019,1 0,0
17.10.2018 09:00:00 15,3 14,9 14,6 4 2 11 6 SSW 1018,7 0,0
17.10.2018 08:00:00 14,8 14,3 14,3 14 8 18 10 W 1018,5 0,0
17.10.2018 07:00:00 14,3 14,3 13,3 14 8 18 10 W 1018,2 0,0
17.10.2018 06:00:00 14,0 14,0 13,2 11 6 14 8 SW 1017,9 0,0
17.10.2018 05:00:00 14,3 14,3 13,9 11 6 18 10 SW 1017,5 0,0
17.10.2018 04:00:00 14,7 14,4 14,0 11 6 14 8 SSW 1017,6 0,0
17.10.2018 03:00:00 14,8 14,4 12,9 11 6 14 8 SSW 1017,7 0,0
17.10.2018 02:00:00 15,1 14,2 14,0 14 8 18 10 WSW 1017,6 0,0
17.10.2018 01:00:00 16,0 13,7 15,4 18 10 29 16 W 1017,7 0,0
17.10.2018 00:00:00 17,3 11,8 15,8 18 10 25 14 SSW 1017,4 0,0
16.10.2018 23:00:00 15,7 11,6 11,7 11 6 18 10 S 1017,3 0,0
16.10.2018 22:00:00 13,7 11,3 10,3 18 10 18 10 ESE 1017,3 0,0
16.10.2018 21:00:00 14,3 11,4 10,6 7 4 11 6 SE 1017,7 0,0
16.10.2018 20:00:00 16,1 11,9 11,3 4 2 11 6 SSE 1017,7 0,0
16.10.2018 19:00:00 16,8 12,8 13,7 7 4 11 6 SE 1017,4 0,0
16.10.2018 18:00:00 21,1 12,2 20,7 11 6 14 8 S 1017,4 0,0
16.10.2018 17:00:00 22,8 11,8 23,6 11 6 14 8 S 1017,4 0,0
16.10.2018 16:00:00 23,5 11,4 24,4 11 6 18 10 SSW 1017,6 0,0
16.10.2018 15:00:00 22,9 10,4 24,4 11 6 18 10 SSW 1017,8 0,0
16.10.2018 14:00:00 23,0 10,7 24,3 11 6 18 10 SSW 1018,0 0,0
16.10.2018 13:00:00 22,8 11,1 22,8 14 8 18 10 SSW 1017,9 0,0
16.10.2018 12:00:00 21,6 13,0 21,5 14 8 18 10 S 1017,8 0,0
16.10.2018 11:00:00 18,6 13,0 18,5 18 10 25 14 S 1017,7 0,0
16.10.2018 10:00:00 16,4 12,8 15,6 22 12 25 14 S 1017,3 0,0
16.10.2018 09:00:00 13,6 12,5 13,0 18 10 25 14 S 1017,0 0,0
16.10.2018 08:00:00 13,5 13,5 13,2 14 8 18 10 SSE 1016,6 0,0
16.10.2018 07:00:00 13,5 13,5 12,8 14 8 18 10 SE 1016,3 0,0
16.10.2018 06:00:00 12,8 12,8 11,1 7 4 11 6 E 1016,3 0,0
16.10.2018 05:00:00 12,5 12,5 10,7 7 4 7 4 ESE 1016,3 0,0
16.10.2018 04:00:00 13,9 13,9 10,5 4 2 4 2 ENE 1016,0 0,0
16.10.2018 03:00:00 13,5 13,5 10,3 4 2 4 2 NNE 1016,1 0,0
16.10.2018 02:00:00 13,2 13,2 10,4 0 0 4 2 N 1015,9 0,0
16.10.2018 01:00:00 13,8 13,8 10,7 4 2 7 4 S 1015,6 0,0
16.10.2018 00:00:00 14,9 14,9 11,0 4 2 4 2 SW 1015,4 0,0
15.10.2018 23:00:00 15,2 14,9 12,2 4 2 4 2 WNW 1015,1 0,0
15.10.2018 22:00:00 15,7 15,0 13,7 4 2 7 4 S 1014,5 0,0
15.10.2018 21:00:00 16,3 15,1 14,8 4 2 4 2 SW 1014,2 0,0
15.10.2018 20:00:00 16,6 15,3 15,7 7 4 7 4 W 1014,0 0,0
15.10.2018 19:00:00 17,3 15,2 17,0 11 6 14 8 W 1013,5 0,0
15.10.2018 18:00:00 18,3 15,2 18,3 11 6 22 12 W 1012,8 0,0
15.10.2018 17:00:00 19,6 14,7 19,9 14 8 25 14 W 1012,1 0,0
15.10.2018 16:00:00 21,3 14,2 21,4 18 10 22 12 SW 1011,8 0,0
15.10.2018 15:00:00 21,3 14,2 21,7 22 12 36 19 SW 1011,3 0,0
15.10.2018 14:00:00 21,7 14,1 21,8 25 14 36 19 SSW 1011,1 0,0
15.10.2018 13:00:00 22,0 14,0 23,0 22 12 36 19 SSW 1010,9 0,0
15.10.2018 12:00:00 20,2 13,3 20,4 25 14 32 18 S 1010,6 0,0
15.10.2018 11:00:00 19,3 12,7 19,6 25 14 32 18 S 1010,4 0,0
15.10.2018 10:00:00 17,8 11,8 17,7 22 12 29 16 S 1009,9 0,0
15.10.2018 09:00:00 16,4 11,3 15,0 14 8 22 12 SSE 1009,4 0,0
15.10.2018 08:00:00 15,7 11,0 14,9 18 10 25 14 SSE 1008,8 0,0
15.10.2018 07:00:00 15,7 11,3 15,0 14 8 22 12 SSE 1008,4 0,0
15.10.2018 06:00:00 15,2 11,5 14,5 18 10 25 14 SSE 1008,4 0,0
15.10.2018 05:00:00 15,5 11,6 14,3 18 10 22 12 SSE 1008,1 0,0
15.10.2018 04:00:00 16,0 11,8 14,2 14 8 18 10 SE 1008,1 0,0
15.10.2018 03:00:00 15,5 12,2 14,8 18 10 25 14 SE 1008,1 0,0
15.10.2018 02:00:00 14,7 12,5 13,5 7 4 14 8 E 1007,9 0,0
15.10.2018 01:00:00 14,1 12,4 11,8 7 4 11 6 SSE 1007,8 0,0
15.10.2018 00:00:00 14,8 12,4 12,5 7 4 14 8 S 1007,9 0,0
14.10.2018 23:00:00 16,5 12,7 13,6 11 6 14 8 SSE 1007,7 0,0
14.10.2018 22:00:00 16,4 13,2 14,2 11 6 14 8 SE 1007,4 0,0
14.10.2018 21:00:00 18,9 13,0 17,1 11 6 14 8 S 1007,3 0,0
14.10.2018 20:00:00 19,3 13,1 17,6 11 6 14 8 S 1006,9 0,0
14.10.2018 19:00:00 20,3 13,1 19,6 18 10 22 12 S 1006,5 0,0
14.10.2018 18:00:00 21,6 13,1 21,5 25 14 29 16 S 1005,9 0,0
14.10.2018 17:00:00 22,7 13,1 23,1 29 16 43 23 S 1005,9 0,0
14.10.2018 16:00:00 22,2 13,5 22,4 29 16 36 19 S 1005,9 0,0
14.10.2018 15:00:00 22,3 13,2 22,4 32 18 43 23 S 1005,7 0,0
14.10.2018 14:00:00 22,8 13,6 23,1 40 21 50 27 S 1005,8 0,0
14.10.2018 13:00:00 21,9 13,7 22,6 29 16 47 25 S 1006,1 0,0
14.10.2018 12:00:00 20,4 13,9 20,7 36 19 43 23 S 1006,4 0,0
14.10.2018 11:00:00 19,1 13,2 19,7 29 16 40 21 S 1006,8 0,0
14.10.2018 10:00:00 18,0 12,9 18,3 22 12 29 16 SE 1007,4 0,0
14.10.2018 09:00:00 16,3 13,2 15,2 22 12 25 14 SE 1007,5 0,0
14.10.2018 08:00:00 15,0 13,0 14,5 18 10 22 12 SE 1007,7 0,0
14.10.2018 07:00:00 15,6 13,2 15,2 22 12 25 14 SE 1007,9 0,0
14.10.2018 06:00:00 16,1 13,4 15,7 14 8 18 10 SE 1008,6 0,0
14.10.2018 05:00:00 16,6 13,5 16,0 14 8 18 10 SSE 1009,1 0,0
14.10.2018 04:00:00 17,5 13,8 17,1 18 10 25 14 S 1009,3 0,0
14.10.2018 03:00:00 18,2 14,0 17,7 25 14 29 16 SSE 1010,0 0,0
14.10.2018 02:00:00 17,6 14,4 17,1 22 12 25 14 SE 1010,5 0,0
14.10.2018 01:00:00 18,6 14,6 18,1 22 12 25 14 SSE 1011,2 0,0
14.10.2018 00:00:00 19,2 14,7 18,7 25 14 29 16 S 1011,6 0,0
13.10.2018 23:00:00 20,1 14,8 19,5 25 14 32 18 S 1012,0 0,0
13.10.2018 22:00:00 20,5 15,1 20,0 29 16 36 19 S 1012,1 0,0
13.10.2018 21:00:00 20,7 15,3 20,3 25 14 32 18 S 1012,3 0,0
13.10.2018 20:00:00 21,5 15,8 21,0 29 16 36 19 SSE 1012,3 0,0
13.10.2018 19:00:00 22,2 16,0 21,7 25 14 32 18 SSE 1012,3 0,0
13.10.2018 18:00:00 23,0 16,8 22,6 18 10 32 18 SSE 1012,6 0,0
13.10.2018 17:00:00 24,7 16,2 25,1 29 16 43 23 S 1013,1 0,0
13.10.2018 16:00:00 25,1 16,5 25,7 32 18 47 25 S 1013,8 0,0
13.10.2018 15:00:00 25,4 16,4 26,2 36 19 47 25 S 1014,3 0,0
13.10.2018 14:00:00 24,9 16,7 25,6 29 16 40 21 S 1015,2 0,0
13.10.2018 13:00:00 23,8 16,5 24,4 32 18 40 21 S 1015,9 0,0
13.10.2018 12:00:00 21,9 16,3 22,3 29 16 40 21 S 1016,5 0,0
13.10.2018 11:00:00 20,5 15,8 21,0 25 14 32 18 S 1016,6 0,0

tt = Température de l'air
td = dewpoint
tt 5cm = Température de l'air 5cm
ff = Vitesse du vent
fx = gusts
dd = Direction du vent
ppp = reduced air pressure
rr = Quantités de précipitations

stations d'obs. à proximité